Terminal Aerodrome Forecast
Issued by NWS

Home | Current Version | Previous Version | Text Only | Print | Product List | Glossary On
Versions: 1 2 3 4 5 6 7 8 9 10 11 12 13 14 15 16
778
FTUS44 KMAF 201737
TAFPEQ
TAF
KPEQ 201737Z 2018/2118 10020G35KT P6SM SKC
      TEMPO 2018/2022 4SM BLDU
     FM202200 10025G40KT 4SM BLDU BKN040
     FM210200 12011KT P6SM SCT200
     FM211200 25011KT P6SM SKC=

USA.gov is the U.S. government's official web portal to all federal, state and local government web resources and services.